createdAt,value
2017-09-20T00:00:36.324Z,0
2017-09-20T00:01:36.310Z,0
2017-09-20T00:02:36.289Z,0
2017-09-20T00:03:36.252Z,0
2017-09-20T00:04:35.932Z,0
2017-09-20T00:05:35.915Z,0
2017-09-20T00:06:36.183Z,0
2017-09-20T00:07:36.206Z,0
2017-09-20T00:08:35.839Z,0
2017-09-20T00:09:36.121Z,0
2017-09-20T00:10:36.096Z,0
2017-09-20T00:11:36.119Z,0
2017-09-20T00:12:35.742Z,0
2017-09-20T00:13:36.026Z,0
2017-09-20T00:14:35.715Z,0
2017-09-20T00:15:35.674Z,0
2017-09-20T00:16:35.963Z,0
2017-09-20T00:17:35.934Z,0
2017-09-20T00:18:35.958Z,0
2017-09-20T00:19:35.888Z,0
2017-09-20T00:20:35.860Z,0
2017-09-20T00:21:35.843Z,0
2017-09-20T00:22:35.821Z,0
2017-09-20T00:23:35.806Z,0
2017-09-20T00:24:35.780Z,0
2017-09-20T00:25:35.763Z,0
2017-09-20T00:26:35.735Z,0
2017-09-20T00:27:35.700Z,0
2017-09-20T00:28:35.379Z,0
2017-09-20T00:29:35.661Z,0
2017-09-20T00:30:35.640Z,0
2017-09-20T00:31:35.610Z,0
2017-09-20T00:32:35.595Z,0
2017-09-20T00:33:35.566Z,0
2017-09-20T00:34:35.549Z,0
2017-09-20T00:35:35.527Z,0
2017-09-20T00:36:35.202Z,0
2017-09-20T00:37:35.477Z,0
2017-09-20T00:38:35.459Z,0
2017-09-20T00:39:35.132Z,0
2017-09-20T00:40:35.453Z,0
2017-09-20T00:41:35.388Z,0
2017-09-20T00:42:35.361Z,0
2017-09-20T00:43:35.028Z,0
2017-09-20T00:44:35.322Z,0
2017-09-20T00:45:35.296Z,0
2017-09-20T00:46:34.959Z,0
2017-09-20T00:47:35.253Z,0
2017-09-20T00:48:35.259Z,0
2017-09-20T00:49:35.202Z,0
2017-09-20T00:50:35.177Z,0
2017-09-20T00:51:35.152Z,0
2017-09-20T00:52:35.141Z,0
2017-09-20T00:53:35.108Z,0
2017-09-20T00:54:35.086Z,0
2017-09-20T00:55:35.075Z,0
2017-09-20T00:56:34.478Z,0
2017-09-20T00:57:35.019Z,0
2017-09-20T00:58:34.998Z,0
2017-09-20T00:59:34.968Z,0
2017-09-20T01:00:34.945Z,0
2017-09-20T01:01:34.932Z,0
2017-09-20T01:02:34.904Z,0
2017-09-20T01:03:34.569Z,0
2017-09-20T01:04:34.552Z,0
2017-09-20T01:05:34.830Z,0
2017-09-20T01:06:34.814Z,0
2017-09-20T01:07:34.790Z,0
2017-09-20T01:08:34.469Z,0
2017-09-20T01:09:34.434Z,0
2017-09-20T01:10:34.726Z,0
2017-09-20T01:11:34.702Z,0
2017-09-20T01:12:34.676Z,0
2017-09-20T01:13:34.664Z,0
2017-09-20T01:14:34.628Z,0
2017-09-20T01:15:34.613Z,0
2017-09-20T01:16:34.592Z,0
2017-09-20T01:17:34.575Z,0
2017-09-20T01:18:34.531Z,0
2017-09-20T01:19:34.510Z,0
2017-09-20T01:20:34.499Z,0
2017-09-20T01:21:34.470Z,0
2017-09-20T01:22:34.461Z,0
2017-09-20T01:23:34.425Z,0
2017-09-20T01:24:34.395Z,0
2017-09-20T01:25:34.377Z,0
2017-09-20T01:26:34.345Z,0
2017-09-20T01:27:34.346Z,0
2017-09-20T01:28:34.312Z,0
2017-09-20T01:29:34.296Z,0
2017-09-20T01:30:34.259Z,0
2017-09-20T01:31:34.265Z,0
2017-09-20T01:32:34.262Z,0
2017-09-20T01:33:33.889Z,0
2017-09-20T01:34:34.170Z,0
2017-09-20T01:35:34.151Z,0
2017-09-20T01:36:33.847Z,0
2017-09-20T01:37:33.810Z,0
2017-09-20T01:38:34.075Z,0
2017-09-20T01:39:34.057Z,0
2017-09-20T01:40:34.037Z,0
2017-09-20T01:41:34.011Z,0
2017-09-20T01:42:34.002Z,0
2017-09-20T01:43:33.960Z,0
2017-09-20T01:44:33.947Z,0
2017-09-20T01:45:33.922Z,0
2017-09-20T01:46:33.926Z,0
2017-09-20T01:47:33.876Z,0
2017-09-20T01:48:33.850Z,0
2017-09-20T01:49:33.829Z,0
2017-09-20T01:50:33.501Z,0
2017-09-20T01:51:33.802Z,0
2017-09-20T01:52:33.512Z,0
2017-09-20T01:53:33.773Z,0
2017-09-20T01:54:33.716Z,0
2017-09-20T01:55:33.695Z,0
2017-09-20T01:56:33.658Z,0
2017-09-20T01:57:33.655Z,0
2017-09-20T01:58:33.614Z,0
2017-09-20T01:59:33.292Z,0
2017-09-20T02:00:33.576Z,0
2017-09-20T02:01:33.603Z,0
2017-09-20T02:02:33.533Z,0
2017-09-20T02:03:33.250Z,0
2017-09-20T02:04:33.487Z,0
2017-09-20T02:05:32.846Z,0
2017-09-20T02:06:33.538Z,0
2017-09-20T02:07:33.421Z,0
2017-09-20T02:08:33.409Z,0
2017-09-20T02:09:33.371Z,0
2017-09-20T02:10:33.356Z,0
2017-09-20T02:11:33.326Z,0
2017-09-20T02:12:33.371Z,0
2017-09-20T02:13:33.328Z,0
2017-09-20T02:14:33.259Z,0
2017-09-20T02:15:32.929Z,0
2017-09-20T02:16:33.218Z,0
2017-09-20T02:17:33.198Z,0
2017-09-20T02:18:33.176Z,0
2017-09-20T02:19:33.147Z,0
2017-09-20T02:20:33.122Z,0
2017-09-20T02:21:32.790Z,0
2017-09-20T02:22:33.075Z,0
2017-09-20T02:23:33.053Z,0
2017-09-20T02:24:33.031Z,0
2017-09-20T02:25:33.004Z,0
2017-09-20T02:26:32.975Z,0
2017-09-20T02:27:32.969Z,0
2017-09-20T02:28:32.936Z,0
2017-09-20T02:29:32.929Z,0
2017-09-20T02:30:32.890Z,0
2017-09-20T02:31:32.874Z,0
2017-09-20T02:32:32.859Z,0
2017-09-20T02:33:32.520Z,0
2017-09-20T02:34:32.815Z,0
2017-09-20T02:35:32.779Z,0
2017-09-20T02:36:32.449Z,0
2017-09-20T02:37:34.454Z,0
2017-09-20T02:38:33.394Z,0
2017-09-20T02:39:32.684Z,0
2017-09-20T02:40:32.740Z,0
2017-09-20T02:41:32.644Z,0
2017-09-20T02:42:32.625Z,0
2017-09-20T02:43:32.594Z,0
2017-09-20T02:44:32.570Z,0
2017-09-20T02:45:32.567Z,0
2017-09-20T02:46:32.532Z,0
2017-09-20T02:47:32.205Z,0
2017-09-20T02:48:32.166Z,0
2017-09-20T02:49:32.477Z,0
2017-09-20T02:50:32.431Z,0
2017-09-20T02:51:32.411Z,0
2017-09-20T02:52:32.392Z,0
2017-09-20T02:53:32.361Z,0
2017-09-20T02:54:32.345Z,0
2017-09-20T02:55:32.329Z,0
2017-09-20T02:56:32.290Z,0
2017-09-20T02:57:32.276Z,0
2017-09-20T02:58:32.284Z,0
2017-09-20T02:59:32.226Z,0
2017-09-20T03:00:32.215Z,0
2017-09-20T03:01:32.190Z,0
2017-09-20T03:02:31.852Z,0
2017-09-20T03:03:32.185Z,0
2017-09-20T03:04:32.112Z,0
2017-09-20T03:05:32.105Z,0
2017-09-20T03:06:32.066Z,0
2017-09-20T03:07:32.037Z,0
2017-09-20T03:08:32.017Z,0
2017-09-20T03:09:32.052Z,0
2017-09-20T03:10:31.975Z,0
2017-09-20T03:11:31.977Z,0
2017-09-20T03:12:31.970Z,0
2017-09-20T03:13:31.931Z,0
2017-09-20T03:14:31.886Z,0
2017-09-20T03:15:31.857Z,0
2017-09-20T03:16:31.253Z,0
2017-09-20T03:17:31.808Z,0
2017-09-20T03:18:31.475Z,0
2017-09-20T03:19:31.467Z,0
2017-09-20T03:20:31.741Z,0
2017-09-20T03:21:31.732Z,0
2017-09-20T03:22:31.696Z,0
2017-09-20T03:23:31.365Z,0
2017-09-20T03:24:31.654Z,0
2017-09-20T03:25:31.729Z,0
2017-09-20T03:26:31.609Z,0
2017-09-20T03:27:31.587Z,0
2017-09-20T03:28:31.568Z,0
2017-09-20T03:29:31.535Z,0
2017-09-20T03:30:31.572Z,0
2017-09-20T03:31:31.553Z,0
2017-09-20T03:32:31.467Z,0
2017-09-20T03:33:31.139Z,0
2017-09-20T03:34:31.422Z,0
2017-09-20T03:35:31.402Z,0
2017-09-20T03:36:31.383Z,0
2017-09-20T03:37:31.050Z,0
2017-09-20T03:38:31.031Z,0
2017-09-20T03:39:31.303Z,0
2017-09-20T03:40:31.294Z,0
2017-09-20T03:41:31.269Z,0
2017-09-20T03:42:31.248Z,0
2017-09-20T03:43:31.226Z,0
2017-09-20T03:44:31.205Z,0
2017-09-20T03:45:31.200Z,0
2017-09-20T03:46:31.149Z,0
2017-09-20T03:47:30.809Z,0
2017-09-20T03:48:31.102Z,0
2017-09-20T03:49:30.774Z,0
2017-09-20T03:50:31.062Z,0
2017-09-20T03:51:30.424Z,0
2017-09-20T03:52:31.026Z,0
2017-09-20T03:53:30.675Z,0
2017-09-20T03:54:30.969Z,0
2017-09-20T03:55:30.946Z,0
2017-09-20T03:56:30.629Z,0
2017-09-20T03:57:30.897Z,0
2017-09-20T03:58:30.878Z,0
2017-09-20T03:59:30.903Z,0
2017-09-20T04:00:30.834Z,0
2017-09-20T04:01:30.827Z,0
2017-09-20T04:02:30.788Z,0
2017-09-20T04:03:30.766Z,0
2017-09-20T04:04:30.798Z,0
2017-09-20T04:05:30.729Z,0
2017-09-20T04:06:30.701Z,0
2017-09-20T04:07:30.675Z,0
2017-09-20T04:08:30.654Z,0
2017-09-20T04:09:30.624Z,0
2017-09-20T04:10:30.600Z,0
2017-09-20T04:11:30.581Z,0
2017-09-20T04:12:30.568Z,0
2017-09-20T04:13:30.223Z,0
2017-09-20T04:14:30.521Z,0
2017-09-20T04:15:30.195Z,0
2017-09-20T04:16:30.462Z,0
2017-09-20T04:17:30.442Z,0
2017-09-20T04:18:30.119Z,0
2017-09-20T04:19:30.392Z,0
2017-09-20T04:20:30.387Z,0
2017-09-20T04:21:30.358Z,0
2017-09-20T04:22:30.323Z,0
2017-09-20T04:23:30.310Z,0
2017-09-20T04:24:30.333Z,0
2017-09-20T04:25:30.257Z,0
2017-09-20T04:26:30.236Z,0
2017-09-20T04:27:30.210Z,0
2017-09-20T04:28:30.199Z,0
2017-09-20T04:29:30.165Z,0
2017-09-20T04:30:30.207Z,0
2017-09-20T04:31:30.124Z,0
2017-09-20T04:32:30.105Z,0
2017-09-20T04:33:30.076Z,0
2017-09-20T04:34:30.061Z,0
2017-09-20T04:35:30.035Z,0
2017-09-20T04:36:30.010Z,0
2017-09-20T04:37:29.675Z,0
2017-09-20T04:38:29.956Z,0
2017-09-20T04:39:29.638Z,0
2017-09-20T04:40:29.921Z,0
2017-09-20T04:41:29.886Z,0
2017-09-20T04:42:29.881Z,0
2017-09-20T04:43:29.850Z,0
2017-09-20T04:44:29.520Z,0
2017-09-20T04:45:29.805Z,0
2017-09-20T04:46:29.785Z,0
2017-09-20T04:47:29.779Z,0
2017-09-20T04:48:29.482Z,0
2017-09-20T04:49:29.718Z,0
2017-09-20T04:50:29.702Z,0
2017-09-20T04:51:29.671Z,0
2017-09-20T04:52:29.645Z,0
2017-09-20T04:53:29.313Z,0
2017-09-20T04:54:29.596Z,0
2017-09-20T04:55:29.577Z,0
2017-09-20T04:56:29.246Z,0
2017-09-20T04:57:29.527Z,0
2017-09-20T04:58:29.503Z,0
2017-09-20T04:59:29.486Z,0
2017-09-20T05:00:29.151Z,0
2017-09-20T05:01:29.646Z,0
2017-09-20T05:02:29.426Z,0
2017-09-20T05:03:29.413Z,0
2017-09-20T05:04:29.427Z,0
2017-09-20T05:05:29.347Z,0
2017-09-20T05:06:29.332Z,0
2017-09-20T05:07:29.309Z,0
2017-09-20T05:08:29.287Z,0
2017-09-20T05:09:29.304Z,0
2017-09-20T05:10:29.227Z,0
2017-09-20T05:11:29.212Z,0
2017-09-20T05:12:29.188Z,0
2017-09-20T05:13:29.164Z,5
2017-09-20T05:14:29.141Z,5
2017-09-20T05:15:29.115Z,5
2017-09-20T05:16:29.091Z,5
2017-09-20T05:17:29.068Z,5
2017-09-20T05:18:29.057Z,5
2017-09-20T05:19:29.084Z,5
2017-09-20T05:20:29.012Z,5
2017-09-20T05:21:28.991Z,5
2017-09-20T05:22:29.003Z,5
2017-09-20T05:23:28.985Z,5
2017-09-20T05:24:28.909Z,5
2017-09-20T05:25:28.582Z,5
2017-09-20T05:26:28.870Z,5
2017-09-20T05:27:28.853Z,5
2017-09-20T05:28:28.830Z,5
2017-09-20T05:29:28.489Z,10
2017-09-20T05:30:28.833Z,10
2017-09-20T05:31:28.763Z,10
2017-09-20T05:32:28.730Z,15
2017-09-20T05:33:28.713Z,15
2017-09-20T05:34:28.688Z,15
2017-09-20T05:35:28.353Z,15
2017-09-20T05:36:28.641Z,15
2017-09-20T05:37:28.629Z,15
2017-09-20T05:38:28.606Z,15
2017-09-20T05:39:28.567Z,15
2017-09-20T05:40:28.541Z,15
2017-09-20T05:41:28.229Z,15
2017-09-20T05:42:28.511Z,20
2017-09-20T05:43:28.475Z,20
2017-09-20T05:44:28.460Z,20
2017-09-20T05:45:28.438Z,25
2017-09-20T05:46:28.507Z,25
2017-09-20T05:47:28.392Z,30
2017-09-20T05:48:28.094Z,30
2017-09-20T05:49:28.350Z,35
2017-09-20T05:50:28.376Z,35
2017-09-20T05:51:28.316Z,35
2017-09-20T05:52:27.973Z,40
2017-09-20T05:53:28.259Z,40
2017-09-20T05:54:28.234Z,40
2017-09-20T05:55:28.210Z,40
2017-09-20T05:56:28.191Z,40
2017-09-20T05:57:28.170Z,35
2017-09-20T05:58:28.145Z,35
2017-09-20T05:59:28.129Z,35
2017-09-20T06:00:28.102Z,40
2017-09-20T06:01:28.105Z,40
2017-09-20T06:02:28.059Z,40
2017-09-20T06:03:28.028Z,40
2017-09-20T06:04:28.003Z,40
2017-09-20T06:05:27.974Z,40
2017-09-20T06:06:27.959Z,45
2017-09-20T06:07:27.936Z,45
2017-09-20T06:08:27.922Z,45
2017-09-20T06:09:27.893Z,45
2017-09-20T06:10:27.902Z,50
2017-09-20T06:11:27.853Z,50
2017-09-20T06:12:27.861Z,50
2017-09-20T06:13:27.800Z,50
2017-09-20T06:14:27.823Z,55
2017-09-20T06:15:27.451Z,55
2017-09-20T06:16:27.765Z,55
2017-09-20T06:17:27.707Z,55
2017-09-20T06:18:27.680Z,55
2017-09-20T06:19:27.663Z,55
2017-09-20T06:20:27.693Z,55
2017-09-20T06:21:27.310Z,55
2017-09-20T06:22:27.290Z,55
2017-09-20T06:23:27.266Z,55
2017-09-20T06:24:27.571Z,50
2017-09-20T06:25:27.521Z,50
2017-09-20T06:26:27.508Z,55
2017-09-20T06:27:27.482Z,55
2017-09-20T06:28:27.150Z,60
2017-09-20T06:29:27.445Z,65
2017-09-20T06:30:27.416Z,70
2017-09-20T06:31:27.397Z,75
2017-09-20T06:32:27.371Z,80
2017-09-20T06:33:27.352Z,90
2017-09-20T06:34:26.741Z,95
2017-09-20T06:35:27.307Z,105
2017-09-20T06:36:27.284Z,110
2017-09-20T06:37:27.273Z,110
2017-09-20T06:38:27.250Z,110
2017-09-20T06:39:26.904Z,110
2017-09-20T06:40:27.186Z,110
2017-09-20T06:41:27.168Z,115
2017-09-20T06:42:27.142Z,115
2017-09-20T06:43:27.126Z,115
2017-09-20T06:44:27.092Z,115
2017-09-20T06:45:27.127Z,110
2017-09-20T06:46:26.749Z,105
2017-09-20T06:47:27.022Z,105
2017-09-20T06:48:27.009Z,105
2017-09-20T06:49:27.021Z,110
2017-09-20T06:50:26.966Z,120
2017-09-20T06:51:26.936Z,130
2017-09-20T06:52:26.929Z,135
2017-09-20T06:53:26.899Z,135
2017-09-20T06:54:26.884Z,145
2017-09-20T06:55:26.863Z,150
2017-09-20T06:56:26.827Z,145
2017-09-20T06:57:26.507Z,135
2017-09-20T06:58:26.784Z,125
2017-09-20T06:59:26.146Z,125
2017-09-20T07:00:26.443Z,125
2017-09-20T07:01:26.732Z,125
2017-09-20T07:02:26.691Z,125
2017-09-20T07:03:26.370Z,130
2017-09-20T07:04:26.653Z,130
2017-09-20T07:05:26.623Z,120
2017-09-20T07:06:26.606Z,110
2017-09-20T07:07:26.591Z,95
2017-09-20T07:08:26.553Z,90
2017-09-20T07:09:26.539Z,80
2017-09-20T07:10:26.520Z,80
2017-09-20T07:11:26.186Z,75
2017-09-20T07:12:26.475Z,75
2017-09-20T07:13:26.455Z,75
2017-09-20T07:14:26.439Z,70
2017-09-20T07:15:26.101Z,70
2017-09-20T07:16:26.379Z,70
2017-09-20T07:17:26.040Z,75
2017-09-20T07:18:26.347Z,90
2017-09-20T07:19:26.017Z,100
2017-09-20T07:20:25.993Z,110
2017-09-20T07:21:25.959Z,105
2017-09-20T07:22:26.247Z,100
2017-09-20T07:23:26.269Z,100
2017-09-20T07:24:25.601Z,100
2017-09-20T07:25:26.181Z,105
2017-09-20T07:26:26.159Z,105
2017-09-20T07:27:26.148Z,100
2017-09-20T07:28:26.127Z,85
2017-09-20T07:29:26.114Z,75
2017-09-20T07:30:26.100Z,75
2017-09-20T07:31:25.748Z,70
2017-09-20T07:32:26.036Z,75
2017-09-20T07:33:25.711Z,80
2017-09-20T07:34:25.990Z,85
2017-09-20T07:35:25.960Z,80
2017-09-20T07:36:25.939Z,85
2017-09-20T07:37:25.916Z,85
2017-09-20T07:38:25.907Z,90
2017-09-20T07:39:25.888Z,90
2017-09-20T07:40:25.870Z,95
2017-09-20T07:41:25.871Z,95
2017-09-20T07:42:25.806Z,90
2017-09-20T07:43:25.785Z,95
2017-09-20T07:44:25.780Z,90
2017-09-20T07:45:25.754Z,95
2017-09-20T07:46:25.725Z,105
2017-09-20T07:47:25.692Z,115
2017-09-20T07:48:25.669Z,120
2017-09-20T07:49:25.663Z,125
2017-09-20T07:50:25.634Z,125
2017-09-20T07:51:25.309Z,115
2017-09-20T07:52:25.278Z,120
2017-09-20T07:53:25.567Z,135
2017-09-20T07:54:25.548Z,140
2017-09-20T07:55:25.522Z,140
2017-09-20T07:56:25.493Z,130
2017-09-20T07:57:25.485Z,150
2017-09-20T07:58:25.147Z,175
2017-09-20T07:59:25.119Z,185
2017-09-20T08:00:25.401Z,180
2017-09-20T08:01:25.073Z,180
2017-09-20T08:02:25.358Z,185
2017-09-20T08:03:25.340Z,200
2017-09-20T08:04:25.009Z,205
2017-09-20T08:05:25.300Z,200
2017-09-20T08:06:25.274Z,170
2017-09-20T08:07:24.949Z,135
2017-09-20T08:08:25.236Z,95
2017-09-20T08:09:24.939Z,80
2017-09-20T08:10:24.893Z,75
2017-09-20T08:11:25.183Z,85
2017-09-20T08:12:25.141Z,80
2017-09-20T08:13:25.185Z,95
2017-09-20T08:14:25.100Z,110
2017-09-20T08:15:24.768Z,115
2017-09-20T08:16:25.044Z,120
2017-09-20T08:17:25.018Z,115
2017-09-20T08:18:24.696Z,120
2017-09-20T08:19:24.981Z,130
2017-09-20T08:20:24.968Z,140
2017-09-20T08:21:24.945Z,150
2017-09-20T08:22:24.921Z,160
2017-09-20T08:23:24.899Z,170
2017-09-20T08:24:24.599Z,190
2017-09-20T08:25:24.856Z,180
2017-09-20T08:26:24.837Z,170
2017-09-20T08:27:24.511Z,170
2017-09-20T08:28:24.785Z,170
2017-09-20T08:29:24.774Z,180
2017-09-20T08:30:24.751Z,205
2017-09-20T08:31:24.411Z,220
2017-09-20T08:32:24.698Z,215
2017-09-20T08:33:24.672Z,215
2017-09-20T08:34:24.663Z,240
2017-09-20T08:35:24.633Z,240
2017-09-20T08:36:24.607Z,250
2017-09-20T08:37:24.645Z,270
2017-09-20T08:38:24.563Z,295
2017-09-20T08:39:24.547Z,260
2017-09-20T08:40:24.525Z,255
2017-09-20T08:41:24.502Z,260
2017-09-20T08:42:24.167Z,265
2017-09-20T08:43:24.460Z,265
2017-09-20T08:44:24.431Z,260
2017-09-20T08:45:24.111Z,260
2017-09-20T08:46:24.396Z,285
2017-09-20T08:47:24.386Z,305
2017-09-20T08:48:24.050Z,310
2017-09-20T08:49:24.321Z,300
2017-09-20T08:50:24.305Z,280
2017-09-20T08:51:24.276Z,255
2017-09-20T08:52:24.277Z,225
2017-09-20T08:53:24.240Z,220
2017-09-20T08:54:23.914Z,220
2017-09-20T08:55:23.889Z,220
2017-09-20T08:56:24.182Z,230
2017-09-20T08:57:24.154Z,245
2017-09-20T08:58:23.830Z,250
2017-09-20T08:59:23.800Z,255
2017-09-20T09:00:24.089Z,260
2017-09-20T09:01:24.072Z,275
2017-09-20T09:02:24.050Z,280
2017-09-20T09:03:24.029Z,280
2017-09-20T09:04:23.998Z,290
2017-09-20T09:05:23.992Z,295
2017-09-20T09:06:23.950Z,310
2017-09-20T09:07:23.977Z,330
2017-09-20T09:08:23.917Z,350
2017-09-20T09:09:23.888Z,360
2017-09-20T09:10:23.873Z,375
2017-09-20T09:11:23.852Z,375
2017-09-20T09:12:23.836Z,375
2017-09-20T09:13:23.505Z,395
2017-09-20T09:14:23.790Z,400
2017-09-20T09:15:23.459Z,380
2017-09-20T09:16:23.748Z,375
2017-09-20T09:17:23.780Z,425
2017-09-20T09:18:23.727Z,435
2017-09-20T09:19:23.676Z,440
2017-09-20T09:20:23.734Z,415
2017-09-20T09:21:23.638Z,400
2017-09-20T09:22:23.605Z,425
2017-09-20T09:23:23.608Z,390
2017-09-20T09:24:23.590Z,395
2017-09-20T09:25:23.555Z,380
2017-09-20T09:26:23.237Z,330
2017-09-20T09:27:23.214Z,360
2017-09-20T09:28:23.485Z,340
2017-09-20T09:29:23.474Z,330
2017-09-20T09:30:23.451Z,340
2017-09-20T09:31:23.124Z,350
2017-09-20T09:32:23.416Z,315
2017-09-20T09:33:23.401Z,295
2017-09-20T09:34:23.365Z,305
2017-09-20T09:35:23.340Z,315
2017-09-20T09:36:23.325Z,320
2017-09-20T09:37:23.299Z,320
2017-09-20T09:38:23.279Z,330
2017-09-20T09:39:22.953Z,325
2017-09-20T09:40:23.252Z,340
2017-09-20T09:41:23.214Z,355
2017-09-20T09:42:22.878Z,360
2017-09-20T09:43:23.171Z,365
2017-09-20T09:44:22.539Z,335
2017-09-20T09:45:23.135Z,365
2017-09-20T09:46:23.120Z,400
2017-09-20T09:47:23.084Z,400
2017-09-20T09:48:22.817Z,380
2017-09-20T09:49:23.059Z,400
2017-09-20T09:50:22.777Z,420
2017-09-20T09:51:22.702Z,430
2017-09-20T09:52:22.678Z,435
2017-09-20T09:53:22.969Z,445
2017-09-20T09:54:22.640Z,425
2017-09-20T09:55:22.928Z,405
2017-09-20T09:56:22.965Z,475
2017-09-20T09:57:22.889Z,505
2017-09-20T09:58:22.865Z,495
2017-09-20T09:59:22.850Z,435
2017-09-20T10:00:22.842Z,340
2017-09-20T10:01:22.809Z,335
2017-09-20T10:02:22.806Z,375
2017-09-20T10:03:22.749Z,340
2017-09-20T10:04:22.749Z,345
2017-09-20T10:05:22.749Z,295
2017-09-20T10:06:22.126Z,205
2017-09-20T10:07:22.684Z,175
2017-09-20T10:08:22.360Z,255
2017-09-20T10:09:22.674Z,270
2017-09-20T10:10:22.634Z,365
2017-09-20T10:11:22.300Z,390
2017-09-20T10:12:22.596Z,325
2017-09-20T10:13:22.559Z,325
2017-09-20T10:14:22.545Z,435
2017-09-20T10:15:22.516Z,370
2017-09-20T10:16:22.558Z,350
2017-09-20T10:17:22.172Z,375
2017-09-20T10:18:22.462Z,455
2017-09-20T10:19:22.439Z,515
2017-09-20T10:20:22.105Z,475
2017-09-20T10:21:22.454Z,475
2017-09-20T10:22:22.379Z,525
2017-09-20T10:23:22.058Z,565
2017-09-20T10:24:22.344Z,600
2017-09-20T10:25:22.324Z,605
2017-09-20T10:26:22.307Z,600
2017-09-20T10:27:21.975Z,560
2017-09-20T10:28:22.258Z,520
2017-09-20T10:29:21.935Z,540
2017-09-20T10:30:22.218Z,490
2017-09-20T10:31:21.898Z,415
2017-09-20T10:32:22.192Z,405
2017-09-20T10:33:22.220Z,425
2017-09-20T10:34:22.138Z,470
2017-09-20T10:35:22.129Z,510
2017-09-20T10:36:22.110Z,415
2017-09-20T10:37:22.089Z,470
2017-09-20T10:38:22.063Z,510
2017-09-20T10:39:22.049Z,470
2017-09-20T10:40:22.083Z,495
2017-09-20T10:41:21.690Z,525
2017-09-20T10:42:21.987Z,485
2017-09-20T10:43:21.980Z,505
2017-09-20T10:44:21.965Z,545
2017-09-20T10:45:21.923Z,555
2017-09-20T10:46:21.607Z,565
2017-09-20T10:47:21.881Z,550
2017-09-20T10:48:21.872Z,565
2017-09-20T10:49:21.854Z,565
2017-09-20T10:50:21.832Z,555
2017-09-20T10:51:21.204Z,565
2017-09-20T10:52:21.794Z,525
2017-09-20T10:53:21.772Z,505
2017-09-20T10:54:21.767Z,515
2017-09-20T10:55:21.745Z,630
2017-09-20T10:56:21.415Z,630
2017-09-20T10:57:21.478Z,595
2017-09-20T10:58:21.689Z,555
2017-09-20T10:59:21.658Z,545
2017-09-20T11:00:21.638Z,545
2017-09-20T11:01:21.618Z,540
2017-09-20T11:02:21.296Z,550
2017-09-20T11:03:21.595Z,555
2017-09-20T11:04:21.571Z,555
2017-09-20T11:05:21.546Z,505
2017-09-20T11:06:21.580Z,485
2017-09-20T11:07:21.513Z,540
2017-09-20T11:08:21.493Z,525
2017-09-20T11:09:21.468Z,515
2017-09-20T11:10:21.145Z,510
2017-09-20T11:11:21.437Z,485
2017-09-20T11:12:21.472Z,460
2017-09-20T11:13:21.391Z,490
2017-09-20T11:14:21.376Z,415
2017-09-20T11:15:21.361Z,340
2017-09-20T11:16:21.335Z,375
2017-09-20T11:17:21.326Z,440
2017-09-20T11:18:20.992Z,475
2017-09-20T11:19:21.289Z,485
2017-09-20T11:20:21.266Z,490
2017-09-20T11:21:21.247Z,475
2017-09-20T11:22:21.235Z,420
2017-09-20T11:23:21.199Z,385
2017-09-20T11:24:21.200Z,405
2017-09-20T11:25:21.168Z,410
2017-09-20T11:26:21.150Z,395
2017-09-20T11:27:35.440Z,370
2017-09-20T11:28:21.185Z,345
2017-09-20T11:29:21.093Z,340
2017-09-20T11:30:21.068Z,365
2017-09-20T11:31:21.050Z,365
2017-09-20T11:32:20.732Z,360
2017-09-20T11:33:21.020Z,330
2017-09-20T11:34:20.701Z,285
2017-09-20T11:35:20.676Z,310
2017-09-20T11:36:20.653Z,335
2017-09-20T11:37:20.948Z,365
2017-09-20T11:38:20.969Z,360
2017-09-20T11:39:20.590Z,340
2017-09-20T11:40:20.876Z,310
2017-09-20T11:41:20.861Z,300
2017-09-20T11:42:20.848Z,310
2017-09-20T11:43:20.836Z,315
2017-09-20T11:44:20.800Z,315
2017-09-20T11:45:20.785Z,315
2017-09-20T11:46:20.456Z,315
2017-09-20T11:47:20.792Z,315
2017-09-20T11:48:20.726Z,330
2017-09-20T11:49:20.751Z,345
2017-09-20T11:50:20.689Z,350
2017-09-20T11:51:20.045Z,360
2017-09-20T11:52:20.650Z,375
2017-09-20T11:53:20.620Z,390
2017-09-20T11:54:20.661Z,405
2017-09-20T11:55:20.634Z,405
2017-09-20T11:56:20.569Z,400
2017-09-20T11:57:20.557Z,385
2017-09-20T11:58:20.579Z,370
2017-09-20T11:59:20.524Z,370
2017-09-20T12:00:20.488Z,365
2017-09-20T12:01:20.461Z,365
2017-09-20T12:02:20.441Z,345
2017-09-20T12:03:20.432Z,330
2017-09-20T12:04:20.402Z,280
2017-09-20T12:05:20.430Z,235
2017-09-20T12:06:20.374Z,195
2017-09-20T12:07:20.348Z,170
2017-09-20T12:08:20.325Z,160
2017-09-20T12:09:19.999Z,145
2017-09-20T12:10:20.285Z,130
2017-09-20T12:11:19.960Z,125
2017-09-20T12:12:20.250Z,125
2017-09-20T12:13:20.240Z,115
2017-09-20T12:14:20.213Z,105
2017-09-20T12:15:20.190Z,100
2017-09-20T12:16:20.164Z,100
2017-09-20T12:17:19.843Z,85
2017-09-20T12:18:20.122Z,80
2017-09-20T12:19:20.104Z,85
2017-09-20T12:20:20.118Z,85
2017-09-20T12:21:20.069Z,85
2017-09-20T12:22:20.052Z,85
2017-09-20T12:23:20.020Z,90
2017-09-20T12:24:20.008Z,90
2017-09-20T12:25:19.369Z,85
2017-09-20T12:26:19.962Z,85
2017-09-20T12:27:19.950Z,85
2017-09-20T12:28:19.314Z,85
2017-09-20T12:29:19.607Z,85
2017-09-20T12:30:19.871Z,85
2017-09-20T12:31:19.878Z,75
2017-09-20T12:32:19.895Z,70
2017-09-20T12:33:19.815Z,70
2017-09-20T12:34:19.810Z,75
2017-09-20T12:35:19.806Z,80
2017-09-20T12:36:19.756Z,85
2017-09-20T12:37:19.733Z,85
2017-09-20T12:38:19.717Z,90
2017-09-20T12:39:19.689Z,95
2017-09-20T12:40:19.367Z,100
2017-09-20T12:41:19.335Z,105
2017-09-20T12:42:19.617Z,110
2017-09-20T12:43:19.294Z,105
2017-09-20T12:44:19.646Z,110
2017-09-20T12:45:19.566Z,120
2017-09-20T12:46:19.540Z,125
2017-09-20T12:47:19.564Z,150
2017-09-20T12:48:19.199Z,160
2017-09-20T12:49:19.495Z,170
2017-09-20T12:50:19.145Z,190
2017-09-20T12:51:19.438Z,195
2017-09-20T12:52:19.411Z,200
2017-09-20T12:53:19.396Z,210
2017-09-20T12:54:19.360Z,215
2017-09-20T12:55:19.353Z,210
2017-09-20T12:56:19.332Z,205
2017-09-20T12:57:19.320Z,210
2017-09-20T12:58:18.977Z,210
2017-09-20T12:59:18.960Z,235
2017-09-20T13:00:19.255Z,265
2017-09-20T13:01:19.268Z,290
2017-09-20T13:02:19.208Z,290
2017-09-20T13:03:18.883Z,295
2017-09-20T13:04:18.857Z,300
2017-09-20T13:05:19.152Z,310
2017-09-20T13:06:19.115Z,315
2017-09-20T13:07:19.152Z,310
2017-09-20T13:08:19.075Z,310
2017-09-20T13:09:19.052Z,310
2017-09-20T13:10:18.730Z,315
2017-09-20T13:11:18.692Z,325
2017-09-20T13:12:18.994Z,330
2017-09-20T13:13:18.663Z,345
2017-09-20T13:14:18.944Z,360
2017-09-20T13:15:18.918Z,360
2017-09-20T13:16:18.595Z,355
2017-09-20T13:17:18.888Z,350
2017-09-20T13:18:18.541Z,360
2017-09-20T13:19:18.840Z,375
2017-09-20T13:20:18.256Z,385
2017-09-20T13:21:18.486Z,385
2017-09-20T13:22:18.488Z,385
2017-09-20T13:23:18.451Z,380
2017-09-20T13:24:18.431Z,385
2017-09-20T13:25:18.715Z,385
2017-09-20T13:26:18.716Z,380
2017-09-20T13:27:18.681Z,365
2017-09-20T13:28:18.350Z,365
2017-09-20T13:29:18.634Z,370
2017-09-20T13:30:18.625Z,375
2017-09-20T13:31:18.591Z,370
2017-09-20T13:32:18.590Z,360
2017-09-20T13:33:18.287Z,345
2017-09-20T13:34:18.533Z,340
2017-09-20T13:35:18.514Z,340
2017-09-20T13:36:18.493Z,335
2017-09-20T13:37:18.472Z,325
2017-09-20T13:38:18.159Z,330
2017-09-20T13:39:18.446Z,330
2017-09-20T13:40:17.494Z,330
2017-09-20T13:41:18.107Z,325
2017-09-20T13:42:18.434Z,310
2017-09-20T13:43:18.398Z,290
2017-09-20T13:44:18.356Z,280
2017-09-20T13:45:18.323Z,275
2017-09-20T13:46:17.989Z,285
2017-09-20T13:47:18.311Z,295
2017-09-20T13:48:18.267Z,305
2017-09-20T13:49:18.244Z,315
2017-09-20T13:50:17.926Z,320
2017-09-20T13:51:18.202Z,320
2017-09-20T13:52:18.174Z,315
2017-09-20T13:53:18.164Z,305
2017-09-20T13:54:17.827Z,295
2017-09-20T13:55:18.163Z,285
2017-09-20T13:56:18.095Z,280
2017-09-20T13:57:18.068Z,270
2017-09-20T13:58:18.053Z,250
2017-09-20T13:59:17.429Z,235
2017-09-20T14:00:18.023Z,245
2017-09-20T14:01:17.681Z,260
2017-09-20T14:02:17.668Z,265
2017-09-20T14:03:18.004Z,260
2017-09-20T14:04:17.942Z,250
2017-09-20T14:05:17.958Z,245
2017-09-20T14:06:17.915Z,235
2017-09-20T14:07:17.873Z,225
2017-09-20T14:08:17.869Z,210
2017-09-20T14:09:17.849Z,205
2017-09-20T14:10:17.822Z,205
2017-09-20T14:11:17.491Z,205
2017-09-20T14:12:17.773Z,200
2017-09-20T14:13:17.750Z,185